JA72MB RJFM-RJFM

Flight info

Callsign JA72MB
Flight time 1h 11m
Altitude 1000
Route LCL ARITA
Aircraft SR22/L-VGDW/C

Departure

Time 2026-05-01 13:14
Airport Miyazaki Airport (RJFM)

Arrival

Time 2026-05-01 14:26
Airport Miyazaki Airport (RJFM)
Time Latitude Longitude Altitude Speed Heading
2026-05-01 12:56 31.87896 131.44259 0 ft 0 kts 81°
2026-05-01 13:00 31.87836 131.44285 29 ft 7 kts 121°
2026-05-01 13:00 31.87842 131.44359 29 ft 13 kts 86°
2026-05-01 13:01 31.87865 131.44699 30 ft 27 kts 88°
2026-05-01 13:01 31.87870 131.44907 29 ft 14 kts 114°
2026-05-01 13:01 31.87824 131.45087 29 ft 0 kts 180°
2026-05-01 13:12 31.87822 131.45087 29 ft 2 kts 178°
2026-05-01 13:13 31.87769 131.45091 26 ft 12 kts 176°
2026-05-01 13:13 31.87726 131.45045 28 ft 2 kts 256°
2026-05-01 13:13 31.87720 131.44966 26 ft 37 kts 265°
2026-05-01 13:13 31.87683 131.44474 63 ft 76 kts 264°
2026-05-01 13:14 31.87633 131.43849 277 ft 80 kts 264°
2026-05-01 13:14 31.87589 131.43153 546 ft 90 kts 264°
2026-05-01 13:14 31.87530 131.42373 825 ft 98 kts 266°
2026-05-01 13:14 31.87490 131.41583 1152 ft 99 kts 284°
2026-05-01 13:15 31.88096 131.41179 983 ft 121 kts 351°
2026-05-01 13:15 31.88938 131.41236 994 ft 119 kts 356°
2026-05-01 13:15 31.89743 131.41358 976 ft 123 kts 19°
2026-05-01 13:15 31.90124 131.42262 939 ft 134 kts 83°
2026-05-01 13:16 31.90162 131.43350 921 ft 130 kts 85°
2026-05-01 13:16 31.90227 131.44363 989 ft 120 kts 84°
2026-05-01 13:16 31.90602 131.45127 1019 ft 106 kts
2026-05-01 13:17 31.90353 131.44274 965 ft 112 kts 155°
2026-05-01 13:17 31.89955 131.45076 993 ft 121 kts 93°
2026-05-01 13:18 31.91035 131.45867 1059 ft 104 kts 314°
2026-05-01 13:18 31.91349 131.45112 1040 ft 102 kts 275°
2026-05-01 13:18 31.91223 131.44319 1053 ft 107 kts 238°
2026-05-01 13:18 31.90563 131.43930 1027 ft 111 kts 168°
2026-05-01 13:19 31.90090 131.44555 1023 ft 111 kts 89°
2026-05-01 13:19 31.90499 131.45202 1085 ft 102 kts
2026-05-01 13:19 31.90949 131.44090 1046 ft 109 kts 219°
2026-05-01 13:20 31.90244 131.44046 1010 ft 110 kts 145°
2026-05-01 13:20 31.89972 131.44832 989 ft 109 kts 84°
2026-05-01 13:20 31.90073 131.45707 948 ft 107 kts 79°
2026-05-01 13:21 31.90255 131.47268 918 ft 95 kts 83°
2026-05-01 13:21 31.90223 131.48062 934 ft 98 kts 119°
2026-05-01 13:21 31.89653 131.48353 711 ft 96 kts 180°
2026-05-01 13:21 31.88967 131.48352 470 ft 97 kts 181°
2026-05-01 13:22 31.88351 131.48353 390 ft 85 kts 181°
2026-05-01 13:22 31.87887 131.48052 328 ft 85 kts 253°
2026-05-01 13:22 31.87870 131.47343 238 ft 88 kts 269°
2026-05-01 13:22 31.87837 131.46634 139 ft 85 kts 264°
2026-05-01 13:23 31.87788 131.45956 50 ft 84 kts 264°
2026-05-01 13:23 31.87742 131.45297 26 ft 81 kts 264°
2026-05-01 13:23 31.87689 131.44578 132 ft 100 kts 262°
2026-05-01 13:23 31.87616 131.43781 386 ft 104 kts 262°
2026-05-01 13:24 31.87523 131.42917 724 ft 107 kts 262°
2026-05-01 13:24 31.87413 131.42034 989 ft 108 kts 262°
2026-05-01 13:24 31.87509 131.41225 1016 ft 103 kts 312°
2026-05-01 13:25 31.88941 131.40849 941 ft 106 kts 353°
2026-05-01 13:25 31.89676 131.40869 1030 ft 109 kts 20°
2026-05-01 13:25 31.90120 131.41573 1023 ft 116 kts 86°
2026-05-01 13:25 31.90197 131.42510 1041 ft 114 kts 85°
2026-05-01 13:26 31.90256 131.43432 1040 ft 112 kts 85°
2026-05-01 13:26 31.90585 131.44205 921 ft 113 kts 26°
2026-05-01 13:26 31.91307 131.44109 859 ft 104 kts 315°
2026-05-01 13:26 31.91439 131.43384 952 ft 98 kts 243°
2026-05-01 13:27 31.90850 131.43104 1001 ft 102 kts 159°
2026-05-01 13:27 31.90496 131.43782 967 ft 105 kts 82°
2026-05-01 13:27 31.91486 131.43967 1045 ft 101 kts 287°
2026-05-01 13:28 31.90526 131.43675 1045 ft 113 kts 116°
2026-05-01 13:28 31.90577 131.44526 1022 ft 103 kts 56°
2026-05-01 13:29 31.91404 131.44033 1151 ft 100 kts 251°
2026-05-01 13:29 31.90333 131.44229 999 ft 115 kts 93°
2026-05-01 13:30 31.90807 131.43582 980 ft 110 kts 162°
2026-05-01 13:31 31.90770 131.44992 949 ft 104 kts 14°
2026-05-01 13:31 31.90452 131.44012 821 ft 115 kts 140°
2026-05-01 13:32 31.90885 131.45175 878 ft 106 kts 345°
2026-05-01 13:33 31.90320 131.44567 964 ft 108 kts 97°
2026-05-01 13:33 31.91330 131.45006 961 ft 106 kts 304°
2026-05-01 13:34 31.90633 131.44049 866 ft 115 kts 146°
2026-05-01 13:34 31.90494 131.45681 1027 ft 95 kts 80°
2026-05-01 13:35 31.90653 131.46938 1056 ft 94 kts 79°
2026-05-01 13:35 31.90739 131.47705 1069 ft 94 kts 83°
2026-05-01 13:35 31.91609 131.48009 1002 ft 90 kts 284°
2026-05-01 13:36 31.91303 131.47433 957 ft 96 kts 192°
2026-05-01 13:36 31.90750 131.47791 924 ft 99 kts 108°
2026-05-01 13:36 31.91580 131.48441 865 ft 99 kts 315°
2026-05-01 13:37 31.91617 131.47727 859 ft 96 kts 227°
2026-05-01 13:37 31.91023 131.47693 904 ft 91 kts 139°
2026-05-01 13:37 31.90925 131.48370 988 ft 90 kts 56°
2026-05-01 13:37 31.91462 131.48594 1022 ft 92 kts 337°
2026-05-01 13:38 31.91233 131.47678 812 ft 88 kts 160°
2026-05-01 13:38 31.91002 131.48264 900 ft 89 kts 66°
2026-05-01 13:38 31.91500 131.48555 938 ft 89 kts 335°
2026-05-01 13:39 31.91695 131.47940 1001 ft 90 kts 244°
2026-05-01 13:39 31.91144 131.47710 941 ft 98 kts 157°
2026-05-01 13:39 31.90874 131.48356 948 ft 97 kts 71°
2026-05-01 13:39 31.91407 131.48649 951 ft 93 kts 336°
2026-05-01 13:40 31.91658 131.48018 883 ft 96 kts 252°
2026-05-01 13:40 31.91134 131.47641 848 ft 96 kts 165°
2026-05-01 13:40 31.90508 131.47775 762 ft 86 kts 172°
2026-05-01 13:40 31.89923 131.47873 585 ft 83 kts 172°
2026-05-01 13:41 31.89351 131.47944 433 ft 82 kts 176°
2026-05-01 13:41 31.88784 131.48002 342 ft 82 kts 175°
2026-05-01 13:41 31.88224 131.47956 330 ft 83 kts 212°
2026-05-01 13:41 31.87944 131.47384 212 ft 83 kts 256°
2026-05-01 13:42 31.87847 131.46705 133 ft 84 kts 263°
2026-05-01 13:42 31.87792 131.46022 74 ft 83 kts 265°
2026-05-01 13:42 31.87751 131.45376 28 ft 77 kts 264°
2026-05-01 13:42 31.87710 131.44762 66 ft 80 kts 265°
2026-05-01 13:43 31.87672 131.44090 219 ft 90 kts 267°
2026-05-01 13:43 31.87598 131.43373 546 ft 85 kts 264°
2026-05-01 13:43 31.87516 131.42672 817 ft 93 kts 258°
2026-05-01 13:43 31.87287 131.41952 1023 ft 102 kts 221°
2026-05-01 13:44 31.86571 131.41872 1252 ft 119 kts 155°
2026-05-01 13:44 31.85865 131.42394 1461 ft 117 kts 147°
2026-05-01 13:44 31.85199 131.42911 1752 ft 116 kts 149°
2026-05-01 13:44 31.84478 131.43367 2058 ft 120 kts 156°
2026-05-01 13:45 31.83719 131.43712 2355 ft 117 kts 163°
2026-05-01 13:45 31.82920 131.43953 2646 ft 120 kts 164°
2026-05-01 13:45 31.82139 131.44296 2933 ft 121 kts 157°
2026-05-01 13:45 31.81360 131.44723 3181 ft 125 kts 155°
2026-05-01 13:46 31.80565 131.45143 3255 ft 125 kts 155°
2026-05-01 13:46 31.79786 131.45587 3267 ft 123 kts 157°
2026-05-01 13:46 31.79006 131.45985 3271 ft 122 kts 157°
2026-05-01 13:46 31.78226 131.46370 3270 ft 121 kts 158°
2026-05-01 13:47 31.77441 131.46757 3331 ft 122 kts 157°
2026-05-01 13:47 31.76664 131.47156 3428 ft 122 kts 156°
2026-05-01 13:47 31.75892 131.47570 3499 ft 124 kts 155°
2026-05-01 13:47 31.75092 131.48024 3508 ft 131 kts 154°
2026-05-01 13:48 31.74272 131.48487 3511 ft 127 kts 155°
2026-05-01 13:48 31.73497 131.48911 3496 ft 120 kts 156°
2026-05-01 13:48 31.72760 131.49308 3487 ft 114 kts 156°
2026-05-01 13:48 31.72061 131.49686 3486 ft 108 kts 156°
2026-05-01 13:49 31.71395 131.50051 3491 ft 103 kts 155°
2026-05-01 13:49 31.70757 131.50409 3490 ft 100 kts 155°
2026-05-01 13:49 31.70144 131.50764 3486 ft 97 kts 154°
2026-05-01 13:49 31.69541 131.51126 3495 ft 98 kts 153°
2026-05-01 13:50 31.68935 131.51508 3497 ft 99 kts 153°
2026-05-01 13:50 31.68298 131.51464 3501 ft 96 kts 217°
2026-05-01 13:50 31.67728 131.51049 3505 ft 97 kts 210°
2026-05-01 13:50 31.67117 131.50633 3515 ft 106 kts 211°
2026-05-01 13:51 31.66474 131.50186 3510 ft 108 kts 211°
2026-05-01 13:51 31.65832 131.49739 3506 ft 110 kts 211°
2026-05-01 13:51 31.65176 131.49283 3509 ft 110 kts 211°
2026-05-01 13:51 31.64513 131.48818 3509 ft 109 kts 211°
2026-05-01 13:52 31.63863 131.48365 3505 ft 108 kts 211°
2026-05-01 13:52 31.63219 131.47916 3507 ft 107 kts 211°
2026-05-01 13:52 31.62604 131.47433 3498 ft 106 kts 228°
2026-05-01 13:52 31.62358 131.46661 3502 ft 104 kts 281°
2026-05-01 13:53 31.62511 131.45832 3497 ft 104 kts 281°
2026-05-01 13:53 31.63002 131.44280 3463 ft 107 kts 328°
2026-05-01 13:53 31.63658 131.43913 3468 ft 105 kts 334°
2026-05-01 13:54 31.64339 131.43543 3362 ft 115 kts 334°
2026-05-01 13:54 31.65105 131.43193 3236 ft 123 kts 353°
2026-05-01 13:54 31.65975 131.43245 3118 ft 128 kts
2026-05-01 13:54 31.66876 131.43307 3013 ft 130 kts
2026-05-01 13:55 31.67761 131.43370 3008 ft 126 kts
2026-05-01 13:55 31.68630 131.43449 3003 ft 125 kts 12°
2026-05-01 13:55 31.69245 131.44104 2991 ft 125 kts 70°
2026-05-01 13:55 31.69514 131.45067 2993 ft 123 kts 70°
2026-05-01 13:56 31.69799 131.46026 2999 ft 126 kts 70°
2026-05-01 13:56 31.70088 131.46994 3001 ft 125 kts 70°
2026-05-01 13:56 31.70373 131.47957 3001 ft 125 kts 70°
2026-05-01 13:56 31.70492 131.48945 2988 ft 125 kts 108°
2026-05-01 13:57 31.69878 131.49565 2991 ft 122 kts 173°
2026-05-01 13:57 31.69063 131.49377 2999 ft 120 kts 196°
2026-05-01 13:57 31.68256 131.49134 3003 ft 120 kts 195°
2026-05-01 13:57 31.67450 131.48891 3006 ft 120 kts 195°
2026-05-01 13:58 31.66644 131.48644 3007 ft 120 kts 195°
2026-05-01 13:58 31.65837 131.48398 3008 ft 120 kts 195°
2026-05-01 13:58 31.65030 131.48152 3008 ft 120 kts 195°
2026-05-01 13:58 31.64224 131.47904 3008 ft 120 kts 195°
2026-05-01 13:59 31.63418 131.47657 3008 ft 120 kts 195°
2026-05-01 13:59 31.62611 131.47410 3008 ft 120 kts 195°
2026-05-01 13:59 31.61805 131.47162 3008 ft 120 kts 195°
2026-05-01 13:59 31.61000 131.46913 3008 ft 120 kts 195°
2026-05-01 14:00 31.60194 131.46665 3008 ft 120 kts 195°
2026-05-01 14:00 31.59393 131.46396 3004 ft 120 kts 206°
2026-05-01 14:00 31.58958 131.45631 2992 ft 119 kts 271°
2026-05-01 14:00 31.59293 131.44767 2999 ft 118 kts 302°
2026-05-01 14:01 31.59716 131.43943 3005 ft 118 kts 300°
2026-05-01 14:01 31.60138 131.43118 3008 ft 118 kts 300°
2026-05-01 14:01 31.60561 131.42293 3009 ft 118 kts 300°
2026-05-01 14:01 31.60989 131.41457 3008 ft 122 kts 300°
2026-05-01 14:02 31.61422 131.40609 3009 ft 121 kts 301°
2026-05-01 14:02 31.62060 131.40013 3007 ft 124 kts 349°
2026-05-01 14:02 31.62888 131.40311 3011 ft 129 kts 33°
2026-05-01 14:02 31.63637 131.40885 3010 ft 127 kts 31°
2026-05-01 14:03 31.64378 131.41437 3009 ft 125 kts 31°
2026-05-01 14:03 31.65112 131.41985 3008 ft 125 kts 31°
2026-05-01 14:03 31.65846 131.42531 3003 ft 124 kts 31°
2026-05-01 14:03 31.66573 131.43071 3001 ft 123 kts 31°
2026-05-01 14:04 31.67285 131.43604 2999 ft 123 kts 31°
2026-05-01 14:04 31.68014 131.44146 2997 ft 122 kts 31°
2026-05-01 14:04 31.68723 131.44673 2994 ft 121 kts 31°
2026-05-01 14:04 31.69203 131.45030 2993 ft 121 kts 31°
2026-05-01 14:05 31.70152 131.45741 3001 ft 126 kts 31°
2026-05-01 14:05 31.70891 131.46294 3005 ft 126 kts 32°
2026-05-01 14:05 31.71630 131.46845 3007 ft 125 kts 31°
2026-05-01 14:05 31.72367 131.47395 3007 ft 125 kts 31°
2026-05-01 14:06 31.73101 131.47942 3006 ft 124 kts 31°
2026-05-01 14:06 31.73830 131.48487 3004 ft 124 kts 31°
2026-05-01 14:06 31.74555 131.49028 3002 ft 123 kts 31°
2026-05-01 14:06 31.75332 131.49493 2864 ft 133 kts 13°
2026-05-01 14:07 31.76221 131.49356 2615 ft 132 kts 324°
2026-05-01 14:07 31.76555 131.48445 2434 ft 124 kts 259°
2026-05-01 14:07 31.75984 131.47747 2182 ft 127 kts 193°
2026-05-01 14:08 31.74944 131.48933 2034 ft 112 kts 76°
2026-05-01 14:08 31.75478 131.49530 1977 ft 115 kts
2026-05-01 14:08 31.76222 131.49232 1846 ft 122 kts 314°
2026-05-01 14:08 31.76910 131.48584 1684 ft 130 kts 327°
2026-05-01 14:09 31.77674 131.48030 1574 ft 126 kts 325°
2026-05-01 14:09 31.78380 131.47450 1469 ft 123 kts 324°
2026-05-01 14:09 31.79059 131.46875 1413 ft 119 kts 323°
2026-05-01 14:09 31.79702 131.46276 1332 ft 116 kts 319°
2026-05-01 14:10 31.80298 131.45664 1270 ft 111 kts 316°
2026-05-01 14:10 31.80864 131.45056 1200 ft 110 kts 317°
2026-05-01 14:10 31.81462 131.44482 1150 ft 112 kts 323°
2026-05-01 14:10 31.82141 131.44014 1077 ft 114 kts 334°
2026-05-01 14:11 31.82892 131.43809 1038 ft 112 kts 352°
2026-05-01 14:11 31.84486 131.43718 1023 ft 113 kts 20°
2026-05-01 14:11 31.84878 131.44424 1111 ft 109 kts 92°
2026-05-01 14:12 31.84782 131.45334 1100 ft 115 kts 88°
2026-05-01 14:12 31.84831 131.46294 1046 ft 118 kts 84°
2026-05-01 14:12 31.84907 131.47202 1040 ft 110 kts 84°
2026-05-01 14:12 31.84951 131.48099 988 ft 110 kts 88°
2026-05-01 14:13 31.85021 131.48992 984 ft 109 kts 82°
2026-05-01 14:13 31.85149 131.49554 958 ft 111 kts 56°
2026-05-01 14:13 31.86028 131.49847 824 ft 96 kts 352°
2026-05-01 14:13 31.86703 131.49741 702 ft 101 kts 353°
2026-05-01 14:14 31.87397 131.49612 681 ft 102 kts 347°
2026-05-01 14:14 31.88010 131.49262 624 ft 100 kts 308°
2026-05-01 14:14 31.88037 131.48492 442 ft 104 kts 249°
2026-05-01 14:14 31.87909 131.47698 311 ft 98 kts 265°
2026-05-01 14:15 31.87861 131.46913 182 ft 97 kts 261°
2026-05-01 14:15 31.87804 131.46132 70 ft 95 kts 265°
2026-05-01 14:15 31.87749 131.45391 26 ft 84 kts 265°
2026-05-01 14:15 31.87693 131.44655 65 ft 104 kts 263°
2026-05-01 14:16 31.87642 131.43880 270 ft 104 kts 266°
2026-05-01 14:16 31.87570 131.43032 563 ft 106 kts 261°
2026-05-01 14:16 31.87457 131.42158 897 ft 111 kts 260°
2026-05-01 14:16 31.87495 131.41284 1075 ft 116 kts 309°
2026-05-01 14:17 31.88255 131.40967 1021 ft 119 kts 352°
2026-05-01 14:17 31.89067 131.40858 1026 ft 115 kts 353°
2026-05-01 14:17 31.89810 131.41067 964 ft 115 kts 51°
2026-05-01 14:17 31.90000 131.41960 916 ft 114 kts 84°
2026-05-01 14:18 31.90082 131.42893 934 ft 116 kts 82°
2026-05-01 14:18 31.90165 131.43839 978 ft 114 kts 84°
2026-05-01 14:18 31.90252 131.44771 990 ft 113 kts 81°
2026-05-01 14:18 31.90330 131.45363 1001 ft 104 kts 81°
2026-05-01 14:19 31.90466 131.46458 1061 ft 103 kts 80°
2026-05-01 14:19 31.90584 131.47282 1011 ft 102 kts 87°
2026-05-01 14:19 31.90410 131.47791 996 ft 100 kts 139°
2026-05-01 14:19 31.89569 131.48067 698 ft 91 kts 173°
2026-05-01 14:20 31.89151 131.48113 588 ft 92 kts 175°
2026-05-01 14:20 31.87951 131.47970 318 ft 83 kts 240°
2026-05-01 14:20 31.87881 131.47279 173 ft 89 kts 267°
2026-05-01 14:21 31.87834 131.46531 97 ft 92 kts 265°
2026-05-01 14:21 31.87772 131.45815 39 ft 86 kts 264°
2026-05-01 14:21 31.87713 131.45145 59 ft 94 kts 264°
2026-05-01 14:22 31.87622 131.43636 516 ft 98 kts 262°
2026-05-01 14:22 31.87542 131.42856 817 ft 96 kts 264°
2026-05-01 14:22 31.87443 131.42058 979 ft 98 kts 258°
2026-05-01 14:22 31.87594 131.41337 954 ft 99 kts 322°
2026-05-01 14:23 31.88263 131.41209 893 ft 104 kts 19°
2026-05-01 14:23 31.88820 131.41706 872 ft 101 kts 64°
2026-05-01 14:23 31.88703 131.42514 724 ft 111 kts 118°
2026-05-01 14:23 31.88446 131.43326 712 ft 103 kts 82°
2026-05-01 14:24 31.88545 131.44128 736 ft 96 kts 81°
2026-05-01 14:24 31.88659 131.44889 740 ft 97 kts 82°
2026-05-01 14:24 31.88723 131.45689 697 ft 97 kts 84°
2026-05-01 14:24 31.88804 131.46432 609 ft 87 kts 83°
2026-05-01 14:25 31.88545 131.47048 460 ft 88 kts 149°
2026-05-01 14:25 31.87980 131.47034 209 ft 81 kts 220°
2026-05-01 14:25 31.87829 131.46437 88 ft 81 kts 267°
2026-05-01 14:25 31.87781 131.45803 27 ft 73 kts 264°
2026-05-01 14:26 31.87744 131.45302 27 ft 49 kts 266°
2026-05-01 14:26 31.87810 131.45062 28 ft 8 kts 298°
2026-05-01 14:26 31.87841 131.44981 29 ft 13 kts 296°
2026-05-01 14:27 31.87877 131.44874 29 ft 16 kts 267°
2026-05-01 14:27 31.87866 131.44736 30 ft 19 kts 265°
2026-05-01 14:27 31.87855 131.44574 30 ft 20 kts 265°
2026-05-01 14:28 31.87844 131.44282 30 ft 8 kts 310°
2026-05-01 14:28 31.87882 131.44271 30 ft 0 kts 346°
2026-05-01 14:28 31.87886 131.44265 30 ft 2 kts 283°
2026-05-01 14:28 31.87891 131.44239 30 ft 6 kts 44°
2026-05-01 14:29 31.87895 131.44256 30 ft 0 kts 87°